Time;durP1;ratioP1;P1;durP2;ratioP2;P2;SDS_P1;SDS_P2;PMS_P1;PMS_P2;Temp;Humidity;BMP_temperature;BMP_pressure;BME280_temperature;BME280_humidity;BME280_pressure;Samples;Min_cycle;Max_cycle;Signal;HPM_P1;HPM_P2
2024/04/16 00:01:43;;;;;;;0.28;0.28;;;5.60;1.00;;;;;;5526891;25;20445;-78
2024/04/16 00:04:09;;;;;;;0.20;0.20;;;5.60;1.00;;;;;;5523230;25;19997;-78
2024/04/16 00:06:36;;;;;;;0.10;0.10;;;5.60;1.00;;;;;;5520220;25;20005;-79
2024/04/16 00:09:02;;;;;;;0.20;0.20;;;5.60;1.00;;;;;;5556904;25;20076;-79
2024/04/16 00:11:28;;;;;;;0.20;0.20;;;5.60;1.00;;;;;;5556490;25;20013;-78
2024/04/16 00:13:54;;;;;;;0.20;0.20;;;5.60;1.00;;;;;;5556668;25;20016;-78
2024/04/16 00:16:19;;;;;;;0.20;0.20;;;5.60;1.00;;;;;;5538040;25;20005;-78
2024/04/16 00:18:45;;;;;;;0.20;0.20;;;5.60;1.00;;;;;;5522240;25;20045;-78
2024/04/16 00:21:12;;;;;;;0.20;0.20;;;5.60;1.00;;;;;;5522422;25;20376;-77
2024/04/16 00:23:38;;;;;;;0.20;0.20;;;5.50;1.00;;;;;;5540765;25;20530;-78
2024/04/16 00:26:03;;;;;;;0.17;0.17;;;5.50;1.00;;;;;;5556820;25;20574;-78
2024/04/16 00:28:29;;;;;;;0.20;0.20;;;5.50;1.00;;;;;;5533650;25;20465;-78
2024/04/16 00:30:55;;;;;;;0.20;0.20;;;5.50;1.00;;;;;;5539005;25;20005;-78
2024/04/16 00:33:21;;;;;;;0.20;0.20;;;5.50;1.00;;;;;;5534470;25;20001;-78
2024/04/16 00:35:48;;;;;;;0.22;0.22;;;5.50;1.00;;;;;;5522823;25;20025;-78
2024/04/16 00:38:13;;;;;;;0.20;0.20;;;5.50;1.00;;;;;;5522529;25;20016;-79
2024/04/16 00:40:39;;;;;;;0.20;0.20;;;5.50;1.00;;;;;;5528602;25;20016;-78
2024/04/16 00:43:18;;;;;;;0.20;0.20;;;5.50;1.00;;;;;;5532941;25;20000;-79
2024/04/16 00:45:53;;;;;;;0.20;0.20;;;5.50;1.00;;;;;;5532570;25;20001;-78
2024/04/16 00:48:28;;;;;;;0.20;0.20;;;6.00;1.00;;;;;;5522279;25;20016;-78
2024/04/16 00:50:56;;;;;;;0.10;0.10;;;5.50;1.00;;;;;;5550902;25;20015;-77
2024/04/16 00:53:23;;;;;;;0.20;0.20;;;5.40;1.00;;;;;;5527633;25;20488;-78
2024/04/16 00:55:50;;;;;;;0.20;0.20;;;5.40;1.00;;;;;;5524644;25;20005;-77
2024/04/16 00:58:18;;;;;;;0.10;0.10;;;5.40;1.00;;;;;;5530288;25;20006;-78
2024/04/16 01:00:44;;;;;;;0.20;0.20;;;5.40;1.00;;;;;;5523903;25;20017;-78
2024/04/16 01:03:10;;;;;;;0.20;0.20;;;5.40;1.00;;;;;;5524270;25;20001;-79
2024/04/16 01:05:36;;;;;;;0.20;0.20;;;5.40;1.00;;;;;;5536538;25;20072;-78
2024/04/16 01:08:04;;;;;;;0.20;0.20;;;5.40;1.00;;;;;;5533173;25;20001;-78
2024/04/16 01:10:30;;;;;;;0.20;0.20;;;5.40;1.00;;;;;;5530572;25;20056;-78
2024/04/16 01:12:56;;;;;;;0.20;0.20;;;5.40;1.00;;;;;;5522667;25;20041;-80
2024/04/16 01:15:22;;;;;;;0.20;0.20;;;5.40;1.00;;;;;;5542210;25;20013;-79
2024/04/16 01:17:49;;;;;;;0.20;0.20;;;5.40;1.00;;;;;;5559045;25;20004;-79
2024/04/16 01:20:15;;;;;;;0.17;0.17;;;5.30;1.00;;;;;;5540370;25;20045;-79
2024/04/16 01:22:47;;;;;;;0.20;0.20;;;5.30;1.00;;;;;;5521195;25;20077;-78
2024/04/16 01:25:13;;;;;;;0.30;0.30;;;5.30;1.00;;;;;;5523616;25;20005;-78
2024/04/16 01:27:39;;;;;;;0.20;0.20;;;5.30;1.00;;;;;;5522353;25;20467;-77
2024/04/16 01:30:05;;;;;;;0.20;0.20;;;5.30;1.00;;;;;;5532140;25;20005;-78
2024/04/16 01:32:31;;;;;;;0.20;0.20;;;5.30;1.00;;;;;;5534541;25;20005;-78
2024/04/16 01:35:03;;;;;;;0.20;0.20;;;5.30;1.00;;;;;;5526060;25;20074;-78
2024/04/16 01:37:30;;;;;;;0.20;0.20;;;5.90;1.00;;;;;;5519458;25;20348;-78
2024/04/16 01:39:55;;;;;;;0.20;0.20;;;5.30;1.00;;;;;;5522517;25;20026;-79
2024/04/16 01:42:21;;;;;;;0.20;0.20;;;5.30;1.00;;;;;;5529157;25;20013;-77
2024/04/16 01:44:51;;;;;;;0.20;0.20;;;5.30;1.00;;;;;;5545012;25;20450;-77
2024/04/16 01:47:17;;;;;;;0.20;0.20;;;5.20;1.00;;;;;;5530723;25;20540;-78
2024/04/16 01:49:43;;;;;;;0.20;0.20;;;5.20;1.00;;;;;;5521506;25;20769;-77
2024/04/16 01:52:08;;;;;;;0.17;0.17;;;5.20;1.00;;;;;;5527936;25;20017;-78
2024/04/16 01:54:34;;;;;;;0.20;0.20;;;5.20;1.00;;;;;;5523054;25;20457;-78
2024/04/16 01:57:02;;;;;;;0.20;0.20;;;5.20;1.00;;;;;;5521101;25;20225;-78
2024/04/16 01:59:28;;;;;;;0.20;0.20;;;5.20;1.00;;;;;;5529929;25;20023;-77
2024/04/16 02:01:53;;;;;;;0.20;0.20;;;5.20;1.00;;;;;;5532922;25;20018;-78
2024/04/16 02:04:19;;;;;;;0.20;0.20;;;5.50;1.00;;;;;;5529596;25;20016;-78
2024/04/16 02:06:46;;;;;;;0.20;0.20;;;5.20;1.00;;;;;;5518561;25;20323;-78
2024/04/16 02:09:11;;;;;;;0.20;0.20;;;5.30;1.00;;;;;;5521054;26;20077;-79
2024/04/16 02:11:37;;;;;;;0.20;0.20;;;5.30;1.00;;;;;;5525827;25;20326;-78
2024/04/16 02:14:03;;;;;;;0.20;0.20;;;5.30;1.00;;;;;;5534880;25;20019;-78
2024/04/16 02:16:28;;;;;;;0.20;0.20;;;5.30;1.00;;;;;;5537821;25;20005;-78
2024/04/16 02:18:54;;;;;;;0.17;0.17;;;5.30;1.00;;;;;;5557943;25;20048;-78
2024/04/16 02:21:20;;;;;;;0.20;0.20;;;5.30;1.00;;;;;;5554131;25;20016;-77
2024/04/16 02:23:46;;;;;;;0.20;0.20;;;5.30;1.00;;;;;;5520910;26;20005;-78
2024/04/16 02:26:12;;;;;;;0.20;0.20;;;5.30;1.00;;;;;;5552658;25;20015;-78
2024/04/16 02:28:38;;;;;;;0.20;0.20;;;5.30;1.00;;;;;;5556372;25;20343;-79
2024/04/16 02:31:03;;;;;;;0.20;0.20;;;5.30;1.00;;;;;;5545703;25;20345;-79
2024/04/16 02:33:29;;;;;;;0.20;0.20;;;5.30;1.00;;;;;;5521976;25;20223;-79
2024/04/16 02:36:02;;;;;;;0.20;0.20;;;5.30;1.00;;;;;;5550147;25;20001;-79
2024/04/16 02:38:30;;;;;;;0.20;0.20;;;5.30;1.00;;;;;;5537462;25;20468;-78
2024/04/16 02:40:56;;;;;;;0.20;0.20;;;5.40;1.00;;;;;;5555516;25;20001;-78
2024/04/16 02:43:21;;;;;;;0.20;0.20;;;5.40;1.00;;;;;;5540509;25;20017;-78
2024/04/16 02:45:53;;;;;;;0.10;0.10;;;5.40;1.00;;;;;;5547193;25;20015;-77
2024/04/16 02:48:19;;;;;;;0.10;0.10;;;5.40;1.00;;;;;;5519771;25;20014;-78
2024/04/16 02:50:47;;;;;;;0.20;0.20;;;5.40;1.00;;;;;;5522224;25;20005;-78
2024/04/16 02:53:12;;;;;;;0.20;0.20;;;5.50;1.00;;;;;;5520071;25;20001;-79
2024/04/16 02:55:38;;;;;;;0.20;0.20;;;5.50;1.00;;;;;;5522606;25;20033;-79
2024/04/16 02:58:04;;;;;;;0.10;0.10;;;5.50;1.00;;;;;;5521574;25;20016;-78
2024/04/16 03:00:30;;;;;;;0.20;0.20;;;5.50;1.00;;;;;;5525212;25;20500;-78
2024/04/16 03:02:56;;;;;;;0.20;0.20;;;5.50;1.00;;;;;;5555059;25;20839;-79
2024/04/16 03:05:22;;;;;;;0.10;0.10;;;5.60;1.00;;;;;;5548283;25;20011;-78
2024/04/16 03:07:49;;;;;;;0.20;0.20;;;5.60;1.00;;;;;;5519078;25;19994;-79
2024/04/16 03:10:16;;;;;;;0.20;0.20;;;5.60;1.00;;;;;;5522646;25;20101;-78
2024/04/16 03:12:45;;;;;;;0.20;0.20;;;5.60;1.00;;;;;;5521511;25;20007;-78
2024/04/16 03:15:11;;;;;;;0.20;0.20;;;5.70;1.00;;;;;;5524474;25;20412;-78
2024/04/16 03:17:37;;;;;;;0.20;0.20;;;5.60;1.00;;;;;;5555166;25;20417;-78
2024/04/16 03:20:04;;;;;;;0.20;0.20;;;5.70;1.00;;;;;;5554904;25;20083;-78
2024/04/16 03:22:30;;;;;;;0.20;0.20;;;5.70;1.00;;;;;;5518574;26;20041;-78
2024/04/16 03:24:56;;;;;;;0.20;0.20;;;5.70;1.00;;;;;;5521896;25;20005;-78
2024/04/16 03:27:21;;;;;;;0.20;0.20;;;5.70;1.00;;;;;;5520999;25;20457;-78
2024/04/16 03:30:08;;;;;;;0.20;0.20;;;5.70;1.00;;;;;;5523788;25;20031;-78
2024/04/16 03:32:33;;;;;;;0.20;0.20;;;5.80;1.00;;;;;;5536375;25;20071;-77
2024/04/16 03:35:19;;;;;;;0.20;0.20;;;5.80;1.00;;;;;;5521807;25;20014;-78
2024/04/16 03:37:47;;;;;;;0.20;0.20;;;5.80;1.00;;;;;;5518880;25;20335;-78
2024/04/16 03:40:14;;;;;;;0.20;0.20;;;5.70;1.00;;;;;;5528421;25;20029;-79
2024/04/16 03:42:40;;;;;;;0.20;0.20;;;5.80;1.00;;;;;;5519741;25;20353;-79
2024/04/16 03:45:06;;;;;;;0.20;0.20;;;5.80;1.00;;;;;;5546376;25;20012;-80
2024/04/16 03:47:32;;;;;;;0.20;0.20;;;5.70;1.00;;;;;;5523591;25;20006;-80
2024/04/16 03:49:58;;;;;;;0.20;0.20;;;6.10;1.00;;;;;;5520606;25;20036;-80
2024/04/16 03:52:25;;;;;;;0.20;0.20;;;5.70;1.00;;;;;;5520115;25;20017;-80
2024/04/16 03:54:50;;;;;;;0.20;0.20;;;5.70;1.00;;;;;;5521502;25;20456;-80
2024/04/16 03:57:16;;;;;;;0.20;0.20;;;5.70;1.00;;;;;;5527118;25;20011;-80
2024/04/16 04:02:19;;;;;;;0.20;0.20;;;5.70;1.00;;;;;;5530856;25;20002;-80
2024/04/16 04:04:46;;;;;;;0.20;0.20;;;5.70;1.00;;;;;;5530313;25;20043;-80
2024/04/16 04:07:14;;;;;;;0.20;0.20;;;5.70;1.00;;;;;;5521859;25;20306;-81
2024/04/16 04:09:39;;;;;;;0.22;0.22;;;6.00;1.00;;;;;;5524232;25;20020;-80
2024/04/16 04:12:06;;;;;;;0.30;0.30;;;5.70;1.00;;;;;;5532621;25;20012;-79
2024/04/16 04:14:32;;;;;;;0.20;0.20;;;5.60;1.00;;;;;;5561540;25;20665;-80
2024/04/16 04:16:58;;;;;;;0.20;0.20;;;5.60;1.00;;;;;;5547487;25;20009;-81
2024/04/16 04:19:23;;;;;;;0.28;0.28;;;5.60;1.00;;;;;;5560586;25;20005;-80
2024/04/16 04:21:49;;;;;;;0.20;0.20;;;5.60;1.00;;;;;;5558228;25;20009;-80
2024/04/16 04:24:17;;;;;;;0.20;0.20;;;5.60;1.00;;;;;;5560602;25;20005;-79
2024/04/16 04:26:46;;;;;;;0.20;0.20;;;5.60;1.00;;;;;;5559712;25;20004;-80
2024/04/16 04:29:12;;;;;;;0.20;0.20;;;5.50;1.00;;;;;;5561102;25;20005;-80
2024/04/16 04:31:38;;;;;;;0.20;0.20;;;5.50;1.00;;;;;;5559237;25;20004;-80
2024/04/16 04:34:04;;;;;;;0.20;0.20;;;5.50;1.70;;;;;;5560766;25;20016;-80
2024/04/16 04:36:30;;;;;;;0.20;0.20;;;5.50;4.70;;;;;;5559056;25;20068;-80
2024/04/16 04:38:56;;;;;;;0.20;0.20;;;5.50;7.00;;;;;;5559186;25;20015;-81
2024/04/16 04:41:23;;;;;;;0.20;0.20;;;5.60;8.80;;;;;;5560465;25;20041;-80
2024/04/16 04:43:52;;;;;;;0.20;0.20;;;5.60;10.80;;;;;;5560195;25;20005;-79
2024/04/16 04:46:18;;;;;;;0.20;0.20;;;5.60;12.10;;;;;;5559620;25;20019;-79
2024/04/16 04:48:44;;;;;;;0.20;0.20;;;5.50;13.40;;;;;;5560124;25;20001;-79
2024/04/16 04:51:10;;;;;;;0.20;0.20;;;5.50;15.00;;;;;;5558879;25;20001;-80
2024/04/16 04:53:37;;;;;;;0.20;0.20;;;5.50;16.60;;;;;;5560010;25;20463;-79
2024/04/16 04:56:03;;;;;;;0.20;0.20;;;5.60;18.30;;;;;;5559682;25;20594;-79
2024/04/16 04:58:29;;;;;;;0.20;0.20;;;5.50;18.20;;;;;;5560808;25;20005;-79
2024/04/16 05:00:55;;;;;;;0.22;0.22;;;5.50;19.50;;;;;;5556328;25;20640;-80
2024/04/16 05:03:21;;;;;;;0.20;0.20;;;5.50;20.60;;;;;;5560663;25;20001;-80
2024/04/16 05:05:47;;;;;;;0.20;0.20;;;5.50;21.50;;;;;;5559358;25;20019;-79
2024/04/16 05:08:13;;;;;;;0.20;0.20;;;5.60;22.00;;;;;;5544046;25;19997;-80
2024/04/16 05:10:38;;;;;;;0.20;0.20;;;5.50;22.60;;;;;;5522575;25;20001;-81
2024/04/16 05:13:04;;;;;;;0.20;0.20;;;5.60;23.00;;;;;;5521305;26;20013;-80
2024/04/16 05:15:30;;;;;;;0.20;0.20;;;5.60;23.90;;;;;;5521944;25;20020;-79
2024/04/16 05:17:56;;;;;;;0.20;0.20;;;5.60;24.20;;;;;;5521955;25;20386;-80
2024/04/16 05:20:22;;;;;;;0.20;0.20;;;5.80;24.10;;;;;;5523029;25;20077;-80
2024/04/16 05:22:49;;;;;;;0.20;0.20;;;5.60;24.80;;;;;;5519888;26;20005;-80
2024/04/16 05:25:15;;;;;;;0.10;0.10;;;5.70;26.20;;;;;;5523083;25;20001;-80
2024/04/16 05:27:40;;;;;;;0.20;0.20;;;5.60;26.70;;;;;;5521033;26;20077;-79
2024/04/16 05:30:08;;;;;;;0.10;0.10;;;5.70;27.10;;;;;;5526827;25;20451;-80
2024/04/16 05:32:33;;;;;;;0.20;0.20;;;5.70;27.70;;;;;;5559979;25;20020;-81
2024/04/16 05:34:59;;;;;;;0.20;0.20;;;5.80;27.30;;;;;;5558834;25;20364;-80
2024/04/16 05:37:25;;;;;;;0.20;0.20;;;5.80;27.40;;;;;;5558391;25;20005;-79
2024/04/16 05:39:51;;;;;;;0.20;0.20;;;5.80;28.20;;;;;;5559523;25;20463;-80
2024/04/16 05:42:17;;;;;;;0.20;0.20;;;5.90;27.60;;;;;;5558912;25;20005;-80
2024/04/16 05:44:43;;;;;;;0.20;0.20;;;5.90;26.70;;;;;;5559191;25;20015;-80
2024/04/16 05:47:09;;;;;;;0.20;0.20;;;5.90;25.50;;;;;;5559538;25;20016;-80
2024/04/16 05:49:35;;;;;;;0.20;0.20;;;5.90;28.50;;;;;;5559440;25;20339;-80
2024/04/16 05:52:01;;;;;;;0.20;0.20;;;5.90;97.00;;;;;;5557280;25;20004;-80
2024/04/16 05:54:30;;;;;;;0.10;0.10;;;5.90;99.90;;;;;;5560176;25;20015;-80
2024/04/16 05:56:55;;;;;;;0.20;0.20;;;5.90;99.90;;;;;;5558072;25;20495;-81
2024/04/16 05:59:21;;;;;;;0.20;0.20;;;5.90;99.90;;;;;;5559795;25;20448;-80
2024/04/16 06:01:47;;;;;;;0.20;0.20;;;5.90;99.90;;;;;;5558759;25;20332;-80
2024/04/16 06:04:13;;;;;;;0.28;0.28;;;5.90;99.90;;;;;;5558798;25;20394;-80
2024/04/16 06:06:39;;;;;;;0.20;0.20;;;5.90;99.90;;;;;;5524280;25;20001;-80
2024/04/16 06:09:04;;;;;;;0.20;0.20;;;5.90;99.90;;;;;;5521320;25;20020;-80
2024/04/16 06:11:31;;;;;;;0.20;0.20;;;5.90;99.90;;;;;;5519228;25;20005;-80
2024/04/16 06:13:58;;;;;;;0.20;0.20;;;5.90;99.90;;;;;;5520583;25;20466;-80
2024/04/16 06:16:24;;;;;;;0.10;0.10;;;5.90;99.90;;;;;;5521529;25;20005;-80
2024/04/16 06:18:52;;;;;;;0.20;0.20;;;5.90;99.90;;;;;;5520642;26;20005;-81
2024/04/16 06:21:18;;;;;;;0.22;0.22;;;5.90;99.90;;;;;;5520130;25;20006;-80
2024/04/16 06:23:45;;;;;;;0.20;0.20;;;5.90;99.90;;;;;;5519438;25;20207;-80
2024/04/16 06:26:11;;;;;;;0.20;0.20;;;5.90;99.90;;;;;;5521648;25;20719;-80
2024/04/16 06:28:38;;;;;;;0.20;0.20;;;6.00;99.90;;;;;;5521589;25;20013;-81
2024/04/16 06:31:03;;;;;;;0.20;0.20;;;6.00;99.90;;;;;;5539151;25;20004;-80
2024/04/16 06:33:30;;;;;;;0.20;0.20;;;6.00;99.90;;;;;;5559672;25;20016;-80
2024/04/16 06:35:55;;;;;;;0.20;0.20;;;6.00;99.90;;;;;;5557434;25;20005;-80
2024/04/16 06:38:26;;;;;;;0.20;0.20;;;6.00;99.90;;;;;;5557340;25;20024;-80
2024/04/16 06:40:52;;;;;;;0.28;0.28;;;6.00;99.90;;;;;;5558045;25;20020;-79
2024/04/16 06:43:19;;;;;;;0.20;0.20;;;6.10;99.90;;;;;;5558953;25;20321;-80
2024/04/16 06:45:45;;;;;;;0.10;0.10;;;6.00;99.90;;;;;;5557564;25;20011;-79
2024/04/16 06:48:10;;;;;;;0.20;0.20;;;6.10;99.90;;;;;;5558679;25;20053;-77
2024/04/16 06:50:36;;;;;;;0.20;0.20;;;6.10;99.90;;;;;;5559250;25;20001;-80
2024/04/16 06:53:02;;;;;;;0.13;0.13;;;6.20;99.90;;;;;;5558072;25;20370;-79
2024/04/16 06:55:30;;;;;;;0.20;0.20;;;6.30;99.90;;;;;;5547985;25;20008;-79
2024/04/16 06:57:57;;;;;;;0.20;0.20;;;6.30;99.90;;;;;;5519772;25;20005;-79
2024/04/16 07:00:23;;;;;;;0.20;0.20;;;6.30;99.90;;;;;;5520544;25;20005;-79
2024/04/16 07:02:49;;;;;;;0.20;0.20;;;6.40;99.90;;;;;;5519794;25;20336;-78
2024/04/16 07:05:15;;;;;;;0.13;0.13;;;6.40;99.90;;;;;;5530932;25;20032;-79
2024/04/16 07:07:40;;;;;;;0.13;0.13;;;6.50;99.90;;;;;;5555176;25;20360;-79
2024/04/16 07:10:07;;;;;;;0.28;0.28;;;6.60;99.90;;;;;;5558549;25;20008;-79
2024/04/16 07:12:32;;;;;;;0.20;0.20;;;6.60;99.90;;;;;;5558014;25;20480;-78
2024/04/16 07:14:58;;;;;;;0.20;0.20;;;6.60;99.90;;;;;;5556456;25;20143;-78
2024/04/16 07:17:24;;;;;;;0.20;0.20;;;6.60;99.90;;;;;;5557694;25;20073;-78
2024/04/16 07:19:49;;;;;;;0.20;0.20;;;6.70;99.90;;;;;;5557376;25;20004;-78
2024/04/16 07:22:15;;;;;;;0.20;0.20;;;6.70;99.90;;;;;;5542829;25;20002;-78
2024/04/16 07:24:42;;;;;;;0.20;0.20;;;6.70;99.90;;;;;;5534795;25;20372;-79
2024/04/16 07:27:08;;;;;;;0.20;0.20;;;6.70;99.90;;;;;;5528837;25;20012;-78
2024/04/16 07:29:34;;;;;;;0.20;0.20;;;6.70;99.90;;;;;;5556166;25;20009;-78
2024/04/16 07:31:59;;;;;;;0.10;0.10;;;6.80;99.90;;;;;;5556772;25;20004;-79
2024/04/16 07:34:25;;;;;;;0.13;0.13;;;6.80;99.90;;;;;;5557269;25;20012;-79
2024/04/16 07:36:51;;;;;;;0.20;0.20;;;6.90;99.90;;;;;;5555299;25;20081;-80
2024/04/16 07:39:16;;;;;;;0.10;0.10;;;6.90;99.90;;;;;;5558455;25;20336;-80
2024/04/16 07:41:45;;;;;;;0.20;0.20;;;7.00;99.90;;;;;;5556334;25;20005;-80
2024/04/16 07:44:12;;;;;;;0.13;0.13;;;7.00;99.90;;;;;;5558093;25;19997;-79
2024/04/16 07:46:37;;;;;;;0.20;0.20;;;7.00;99.90;;;;;;5557406;25;20084;-79
2024/04/16 07:49:03;;;;;;;0.20;0.20;;;7.00;99.90;;;;;;5526915;25;20005;-78
2024/04/16 07:51:29;;;;;;;0.20;0.20;;;7.00;99.90;;;;;;5526620;25;20140;-78
2024/04/16 07:53:54;;;;;;;0.28;0.28;;;7.10;99.90;;;;;;5547424;25;20000;-79
2024/04/16 07:56:20;;;;;;;0.20;0.20;;;7.10;99.90;;;;;;5544432;25;20005;-79
2024/04/16 07:58:46;;;;;;;0.20;0.20;;;7.20;99.90;;;;;;5545343;25;20008;-79
2024/04/16 08:01:14;;;;;;;0.10;0.10;;;7.30;99.90;;;;;;5557201;25;20044;-80
2024/04/16 08:03:40;;;;;;;0.10;0.10;;;7.30;99.90;;;;;;5554130;25;20013;-80
2024/04/16 08:06:06;;;;;;;0.20;0.20;;;7.40;99.90;;;;;;5555477;25;20443;-80
2024/04/16 08:08:32;;;;;;;0.20;0.20;;;7.40;99.90;;;;;;5554452;25;20000;-80
2024/04/16 08:11:10;;;;;;;0.13;0.13;;;7.40;99.90;;;;;;5550078;25;20020;-81
2024/04/16 08:13:36;;;;;;;0.20;0.20;;;7.40;99.90;;;;;;5537892;25;20016;-80
2024/04/16 08:16:02;;;;;;;0.20;0.20;;;7.40;99.90;;;;;;5518563;25;20153;-81
2024/04/16 08:18:28;;;;;;;0.20;0.20;;;7.50;99.90;;;;;;5545789;25;20033;-81
2024/04/16 08:20:53;;;;;;;0.10;0.10;;;7.50;99.90;;;;;;5555725;25;20005;-81
2024/04/16 08:23:20;;;;;;;0.20;0.20;;;7.60;99.90;;;;;;5535939;25;20025;-80
2024/04/16 08:25:56;;;;;;;0.20;0.20;;;7.60;99.90;;;;;;5555955;25;20017;-81
2024/04/16 08:28:22;;;;;;;0.10;0.10;;;7.60;99.90;;;;;;5524841;25;20521;-81
2024/04/16 08:30:48;;;;;;;0.10;0.10;;;7.60;99.90;;;;;;5543129;25;20017;-80
2024/04/16 08:33:17;;;;;;;0.20;0.20;;;7.60;99.90;;;;;;5519776;25;20016;-79
2024/04/16 08:35:42;;;;;;;0.10;0.10;;;7.60;99.90;;;;;;5519585;25;20567;-81
2024/04/16 08:38:08;;;;;;;0.10;0.10;;;7.70;99.90;;;;;;5521513;25;20008;-80
2024/04/16 08:40:38;;;;;;;0.10;0.10;;;7.80;99.90;;;;;;5522195;25;20016;-80
2024/04/16 08:43:05;;;;;;;0.10;0.10;;;7.80;99.90;;;;;;5533483;25;20453;-77
2024/04/16 08:45:31;;;;;;;0.10;0.10;;;7.90;99.90;;;;;;5522692;25;20016;-77
2024/04/16 08:48:01;;;;;;;0.20;0.20;;;7.90;99.90;;;;;;5520271;25;20388;-76
2024/04/16 08:50:27;;;;;;;0.10;0.10;;;7.90;99.90;;;;;;5542009;25;20004;-76
2024/04/16 08:52:58;;;;;;;0.20;0.20;;;8.00;99.90;;;;;;5556519;25;20005;-78
2024/04/16 08:55:26;;;;;;;0.10;0.10;;;8.10;99.90;;;;;;5526459;25;20013;-79
2024/04/16 08:57:53;;;;;;;0.10;0.10;;;8.10;99.90;;;;;;5533715;25;20005;-80
2024/04/16 09:00:20;;;;;;;0.20;0.20;;;8.10;99.90;;;;;;5541567;25;20002;-80
2024/04/16 09:02:46;;;;;;;0.20;0.20;;;8.20;99.90;;;;;;5538633;25;20015;-80
2024/04/16 09:05:12;;;;;;;0.10;0.10;;;8.10;99.90;;;;;;5560442;25;20004;-78
2024/04/16 09:07:41;;;;;;;0.10;0.10;;;8.10;99.90;;;;;;5540353;25;20328;-77
2024/04/16 09:10:22;;;;;;;0.25;0.25;;;8.10;99.90;;;;;;5535790;25;20015;-77
2024/04/16 09:12:48;;;;;;;0.13;0.13;;;8.10;99.90;;;;;;5548659;25;20056;-78
2024/04/16 09:15:15;;;;;;;0.10;0.10;;;8.10;99.90;;;;;;5543200;25;20001;-79
2024/04/16 09:17:48;;;;;;;0.20;0.20;;;8.10;99.90;;;;;;5545297;25;20029;-78
2024/04/16 09:20:17;;;;;;;0.10;0.10;;;8.30;99.90;;;;;;5529537;25;20005;-80
2024/04/16 09:22:42;;;;;;;0.10;0.10;;;8.30;99.90;;;;;;5519495;25;20016;-80
2024/04/16 09:25:08;;;;;;;0.10;0.10;;;8.50;99.90;;;;;;5522551;26;20444;-80
2024/04/16 09:27:34;;;;;;;0.15;0.15;;;8.50;99.90;;;;;;5522556;25;20005;-79
2024/04/16 09:30:10;;;;;;;0.20;0.20;;;8.60;99.90;;;;;;5532362;25;20365;-79
2024/04/16 09:32:37;;;;;;;0.10;0.10;;;8.70;99.90;;;;;;5545209;25;20038;-78
2024/04/16 09:35:03;;;;;;;0.10;0.10;;;8.70;99.90;;;;;;5539960;25;20081;-77
2024/04/16 09:37:28;;;;;;;0.10;0.10;;;8.90;99.90;;;;;;5552745;25;20013;-78
2024/04/16 09:39:57;;;;;;;0.10;0.10;;;8.90;99.90;;;;;;5551974;25;20025;-79
2024/04/16 09:42:23;;;;;;;0.20;0.20;;;8.90;99.90;;;;;;5544574;25;20004;-77
2024/04/16 09:44:50;;;;;;;0.10;0.10;;;8.90;99.90;;;;;;5541106;25;20011;-77
2024/04/16 09:47:18;;;;;;;0.10;0.10;;;8.90;99.90;;;;;;5554518;25;20104;-77
2024/04/16 09:49:44;;;;;;;0.20;0.20;;;9.00;99.90;;;;;;5522645;25;20005;-77
2024/04/16 09:52:14;;;;;;;0.10;0.10;;;9.00;99.90;;;;;;5530971;25;20025;-77
2024/04/16 09:54:44;;;;;;;0.10;0.10;;;9.00;99.90;;;;;;5558896;25;20004;-77
2024/04/16 09:57:11;;;;;;;0.10;0.10;;;9.00;99.90;;;;;;5558166;25;20013;-77
2024/04/16 09:59:41;;;;;;;0.10;0.10;;;9.10;99.90;;;;;;5559323;25;20004;-78
2024/04/16 10:02:09;;;;;;;0.20;0.20;;;9.10;99.90;;;;;;5531015;25;20029;-78
2024/04/16 10:04:36;;;;;;;0.10;0.10;;;9.00;99.90;;;;;;5522717;25;20090;-78
2024/04/16 10:07:03;;;;;;;0.20;0.20;;;9.10;99.90;;;;;;5549394;25;20414;-78
2024/04/16 10:09:30;;;;;;;0.20;0.20;;;9.20;99.90;;;;;;5537717;25;20000;-80
2024/04/16 10:11:56;;;;;;;0.10;0.10;;;9.20;99.90;;;;;;5521827;25;20451;-77
2024/04/16 10:14:23;;;;;;;0.20;0.20;;;9.30;99.90;;;;;;5522130;25;20056;-77
2024/04/16 10:16:49;;;;;;;0.10;0.10;;;9.30;99.90;;;;;;5529972;25;20002;-78
2024/04/16 10:19:17;;;;;;;0.10;0.10;;;9.40;99.90;;;;;;5545301;25;20005;-78
2024/04/16 10:21:47;;;;;;;0.10;0.10;;;9.40;99.90;;;;;;5520185;25;20001;-78
2024/04/16 10:24:16;;;;;;;0.20;0.20;;;9.60;99.90;;;;;;5546366;25;20460;-78
2024/04/16 10:26:43;;;;;;;0.15;0.15;;;9.70;99.90;;;;;;5558246;25;20011;-78
2024/04/16 10:29:24;;;;;;;0.20;0.20;;;9.70;99.90;;;;;;5559251;25;19997;-77
2024/04/16 10:31:51;;;;;;;0.20;0.20;;;9.80;99.90;;;;;;5541744;25;20013;-78
2024/04/16 10:34:24;;;;;;;0.20;0.20;;;9.80;99.90;;;;;;5522534;25;20005;-78
2024/04/16 10:36:51;;;;;;;0.10;0.10;;;9.90;99.90;;;;;;5518797;25;20005;-77
2024/04/16 10:39:17;;;;;;;0.20;0.20;;;10.00;99.90;;;;;;5530855;25;20005;-77
2024/04/16 10:41:53;;;;;;;0.10;0.10;;;10.00;99.90;;;;;;5543153;25;20013;-77
2024/04/16 10:44:20;;;;;;;0.10;0.10;;;10.10;99.90;;;;;;5521006;25;20009;-77
2024/04/16 10:46:47;;;;;;;0.10;0.10;;;10.20;99.90;;;;;;5528044;25;20009;-78
2024/04/16 10:49:14;;;;;;;0.20;0.20;;;10.40;99.90;;;;;;5543259;25;20000;-79
2024/04/16 10:51:39;;;;;;;0.10;0.10;;;10.60;99.90;;;;;;5555801;25;20011;-77
2024/04/16 10:54:07;;;;;;;0.10;0.10;;;10.60;99.90;;;;;;5524345;25;20005;-78
2024/04/16 10:56:36;;;;;;;0.20;0.20;;;10.60;99.90;;;;;;5522780;25;20006;-77
2024/04/16 10:59:07;;;;;;;0.15;0.15;;;10.60;99.90;;;;;;5557896;25;20016;-78
2024/04/16 11:01:33;;;;;;;0.20;0.20;;;10.60;99.90;;;;;;5558134;25;20098;-77
2024/04/16 11:04:13;;;;;;;0.20;0.20;;;10.50;99.90;;;;;;5557946;25;20015;-77
2024/04/16 11:06:40;;;;;;;0.15;0.15;;;10.60;99.90;;;;;;5518211;25;20098;-77
2024/04/16 11:09:06;;;;;;;0.17;0.17;;;10.80;99.90;;;;;;5520222;25;20094;-77
2024/04/16 11:11:33;;;;;;;0.10;0.10;;;10.80;99.90;;;;;;5520515;25;20041;-77
2024/04/16 11:13:59;;;;;;;0.10;0.10;;;11.00;99.90;;;;;;5519585;25;20006;-78
2024/04/16 11:16:27;;;;;;;0.10;0.10;;;11.00;99.90;;;;;;5520517;25;20016;-77
2024/04/16 11:18:53;;;;;;;0.10;0.10;;;10.90;99.90;;;;;;5520284;25;20005;-77
2024/04/16 11:21:20;;;;;;;0.13;0.13;;;10.90;99.90;;;;;;5517556;25;20013;-76
2024/04/16 11:23:47;;;;;;;0.10;0.10;;;10.80;99.90;;;;;;5532873;25;20015;-77
2024/04/16 11:26:14;;;;;;;0.10;0.10;;;10.70;99.90;;;;;;5557146;25;20521;-80
2024/04/16 11:28:40;;;;;;;0.10;0.10;;;10.60;99.90;;;;;;5552729;25;20001;-77
2024/04/16 11:31:06;;;;;;;0.10;0.10;;;10.50;99.90;;;;;;5536518;25;20005;-80
2024/04/16 11:33:34;;;;;;;0.10;0.10;;;10.40;99.90;;;;;;5542574;25;20528;-77
2024/04/16 11:36:08;;;;;;;0.20;0.20;;;10.40;99.90;;;;;;5518358;26;20006;-81
2024/04/16 11:38:34;;;;;;;0.10;0.10;;;10.40;99.90;;;;;;5520784;25;20508;-79
2024/04/16 11:41:01;;;;;;;0.10;0.10;;;10.50;99.90;;;;;;5521223;25;20005;-77
2024/04/16 11:43:30;;;;;;;0.10;0.10;;;10.60;99.90;;;;;;5525846;25;20094;-79
2024/04/16 11:45:56;;;;;;;0.10;0.10;;;10.80;99.90;;;;;;5519632;25;20020;-78
2024/04/16 11:48:22;;;;;;;0.10;0.10;;;11.00;99.90;;;;;;5545307;25;20005;-78
2024/04/16 11:50:49;;;;;;;0.20;0.20;;;11.10;99.90;;;;;;5546865;25;19997;-76
2024/04/16 11:53:15;;;;;;;0.10;0.10;;;11.30;95.60;;;;;;5534372;25;20340;-78
2024/04/16 11:55:40;;;;;;;0.10;0.10;;;11.30;72.80;;;;;;5579013;25;20069;-78
2024/04/16 11:58:07;;;;;;;0.10;0.10;;;11.40;49.00;;;;;;5528623;25;20024;-79
2024/04/16 12:00:33;;;;;;;0.10;0.10;;;11.50;29.60;;;;;;5540224;25;20005;-77
2024/04/16 12:03:01;;;;;;;0.10;0.10;;;11.60;15.30;;;;;;5555855;25;20017;-79
2024/04/16 12:05:27;;;;;;;0.10;0.10;;;11.70;5.70;;;;;;5536248;25;20349;-79
2024/04/16 12:07:53;;;;;;;0.10;0.10;;;11.70;1.00;;;;;;5517286;25;20047;-78
2024/04/16 12:10:18;;;;;;;0.10;0.10;;;11.70;1.00;;;;;;5521336;25;20443;-79
2024/04/16 12:12:45;;;;;;;0.20;0.20;;;11.70;1.00;;;;;;5518869;25;20074;-78
2024/04/16 12:15:10;;;;;;;0.10;0.10;;;11.70;1.00;;;;;;5521045;25;20012;-78
2024/04/16 12:17:36;;;;;;;0.10;0.10;;;11.70;1.00;;;;;;5547151;25;20040;-77
2024/04/16 12:20:02;;;;;;;0.10;0.10;;;11.60;1.00;;;;;;5540426;25;20006;-76
2024/04/16 12:22:28;;;;;;;0.15;0.15;;;11.60;1.00;;;;;;5527378;25;20370;-77
2024/04/16 12:24:54;;;;;;;0.20;0.20;;;11.50;1.00;;;;;;5542259;25;20020;-82
2024/04/16 12:27:20;;;;;;;0.10;0.10;;;11.50;1.00;;;;;;5538763;25;19996;-77
2024/04/16 12:29:47;;;;;;;0.10;0.10;;;11.50;1.00;;;;;;5559771;25;20005;-80
2024/04/16 12:32:12;;;;;;;0.10;0.10;;;11.50;1.00;;;;;;5560322;25;20080;-77
2024/04/16 12:34:38;;;;;;;0.20;0.20;;;11.50;1.00;;;;;;5560950;25;20016;-77
2024/04/16 12:37:04;;;;;;;0.10;0.10;;;11.50;1.00;;;;;;5558089;25;20016;-79
2024/04/16 12:39:30;;;;;;;0.15;0.15;;;11.50;1.00;;;;;;5530789;25;20011;-81
2024/04/16 12:41:59;;;;;;;0.10;0.10;;;11.30;1.00;;;;;;5523018;25;20002;-79
2024/04/16 12:44:28;;;;;;;0.17;0.17;;;11.20;1.00;;;;;;5551522;25;20013;-79
2024/04/16 12:46:53;;;;;;;0.20;0.20;;;11.00;1.00;;;;;;5525733;25;20013;-80
2024/04/16 12:49:24;;;;;;;0.17;0.17;;;10.90;1.00;;;;;;5537598;25;20715;-78
2024/04/16 12:51:52;;;;;;;0.10;0.10;;;10.90;1.00;;;;;;5550951;25;20044;-78
2024/04/16 12:54:19;;;;;;;0.20;0.20;;;10.70;1.00;;;;;;5550433;25;20066;-81
2024/04/16 12:56:48;;;;;;;0.10;0.10;;;10.70;1.00;;;;;;5546499;25;20036;-77
2024/04/16 12:59:16;;;;;;;0.20;0.20;;;10.70;1.00;;;;;;5559339;25;20005;-77
2024/04/16 13:01:43;;;;;;;0.10;0.10;;;10.60;1.00;;;;;;5559370;25;20467;-78